Time,TemperatureF,DewpointF,PressureIn,WindDirection,WindDirectionDegrees,WindSpeedMPH,WindSpeedGustMPH,Humidity,HourlyPrecipIn,Conditions,Clouds,dailyrainin,SolarRadiationWatts/m^2,SoftwareType,DateUTC
2013-01-10 00:06:00,19.4,15.9,30.38,SSE,160,2.0,4.0,86,0.00,,,0.00,0,Wunderground v.1.15,2013-01-10 06:06:00,
2013-01-10 00:16:00,19.0,15.8,30.38,SSE,160,2.0,2.0,87,0.00,,,0.00,0,Wunderground v.1.15,2013-01-10 06:16:00,
2013-01-10 00:26:00,18.9,15.7,30.38,SSE,160,1.0,1.0,87,0.00,,,0.00,0,Wunderground v.1.15,2013-01-10 06:26:00,
2013-01-10 00:36:00,19.0,15.8,30.39,SSE,160,3.0,3.0,87,0.00,,,0.00,0,Wunderground v.1.15,2013-01-10 06:36:00,
2013-01-10 00:46:00,19.2,16.5,30.38,South,190,3.0,4.0,89,0.00,,,0.00,0,Wunderground v.1.15,2013-01-10 06:46:00,
2013-01-10 00:56:00,19.4,16.7,30.39,SSW,197,3.0,3.0,89,0.00,,,0.00,0,Wunderground v.1.15,2013-01-10 06:56:00,
2013-01-10 01:06:00,19.9,17.2,30.38,SSW,204,3.0,3.0,89,0.00,,,0.00,0,Wunderground v.1.15,2013-01-10 07:06:00,
2013-01-10 01:11:00,20.2,17.7,30.39,SSW,204,3.0,3.0,90,0.00,,,0.00,0,Wunderground v.1.15,2013-01-10 07:11:00,
2013-01-10 01:21:00,20.4,17.9,30.38,SSW,204,3.0,3.0,90,0.00,,,0.00,0,Wunderground v.1.15,2013-01-10 07:21:00,
2013-01-10 01:31:00,21.0,18.8,30.39,SSW,206,2.0,2.0,91,0.00,,,0.00,0,Wunderground v.1.15,2013-01-10 07:31:00,
2013-01-10 01:41:00,21.7,19.5,30.39,SSW,206,1.0,1.0,91,0.00,,,0.00,0,Wunderground v.1.15,2013-01-10 07:41:00,
2013-01-10 01:51:00,21.9,19.2,30.39,SSW,212,4.0,4.0,89,0.00,,,0.00,0,Wunderground v.1.15,2013-01-10 07:51:00,
2013-01-10 02:01:00,22.2,19.5,30.39,SW,217,3.0,6.0,89,0.00,,,0.00,0,Wunderground v.1.15,2013-01-10 08:01:00,
2013-01-10 02:06:00,22.2,19.5,30.39,SW,217,2.0,6.0,89,0.00,,,0.00,0,Wunderground v.1.15,2013-01-10 08:06:00,
2013-01-10 02:16:00,22.3,19.6,30.39,SW,216,3.0,3.0,89,0.00,,,0.00,0,Wunderground v.1.15,2013-01-10 08:16:00,
2013-01-10 02:26:00,22.1,19.1,30.40,SW,216,2.0,2.0,88,0.00,,,0.00,0,Wunderground v.1.15,2013-01-10 08:26:00,
2013-01-10 02:31:00,22.0,19.0,30.39,SW,216,2.0,2.0,88,0.00,,,0.00,0,Wunderground v.1.15,2013-01-10 08:31:00,
2013-01-10 02:41:00,21.5,18.5,30.40,SW,216,1.0,1.0,88,0.00,,,0.00,0,Wunderground v.1.15,2013-01-10 08:41:00,
2013-01-10 02:51:00,20.9,17.9,30.40,SW,216,3.0,3.0,88,0.00,,,0.00,0,Wunderground v.1.15,2013-01-10 08:51:00,
2013-01-10 03:01:00,20.4,17.4,30.41,SW,215,0.0,7.0,88,0.00,,,0.00,0,Wunderground v.1.15,2013-01-10 09:01:00,
2013-01-10 03:06:00,20.3,17.3,30.40,SW,215,0.0,7.0,88,0.00,,,0.00,0,Wunderground v.1.15,2013-01-10 09:06:00,
2013-01-10 03:16:00,20.2,17.5,30.40,SSW,213,1.0,2.0,89,0.00,,,0.00,0,Wunderground v.1.15,2013-01-10 09:16:00,
2013-01-10 03:26:00,20.0,17.3,30.39,SSW,213,2.0,2.0,89,0.00,,,0.00,0,Wunderground v.1.15,2013-01-10 09:26:00,
2013-01-10 03:31:00,19.9,17.2,30.39,SSW,213,0.0,0.0,89,0.00,,,0.00,0,Wunderground v.1.15,2013-01-10 09:31:00,
2013-01-10 03:41:00,19.7,17.0,30.40,SSW,213,0.0,0.0,89,0.00,,,0.00,0,Wunderground v.1.15,2013-01-10 09:41:00,
2013-01-10 03:51:00,19.7,17.2,30.39,SSW,213,0.0,0.0,90,0.00,,,0.00,0,Wunderground v.1.15,2013-01-10 09:51:00,
2013-01-10 04:01:00,19.5,17.0,30.38,SSW,213,0.0,3.0,90,0.00,,,0.00,0,Wunderground v.1.15,2013-01-10 10:01:00,
2013-01-10 04:06:00,19.5,17.0,30.37,SSW,213,0.0,3.0,90,0.00,,,0.00,0,Wunderground v.1.15,2013-01-10 10:06:00,
2013-01-10 04:16:00,19.5,17.0,30.37,SSW,213,0.0,0.0,90,0.00,,,0.00,0,Wunderground v.1.15,2013-01-10 10:16:00,
2013-01-10 04:26:00,19.2,16.7,30.38,SSW,213,0.0,0.0,90,0.00,,,0.00,0,Wunderground v.1.15,2013-01-10 10:26:00,
2013-01-10 04:36:00,18.9,16.5,30.38,SSW,213,0.0,0.0,90,0.00,,,0.00,0,Wunderground v.1.15,2013-01-10 10:36:00,
2013-01-10 04:46:00,18.7,16.3,30.37,SSW,213,0.0,0.0,90,0.00,,,0.00,0,Wunderground v.1.15,2013-01-10 10:46:00,
2013-01-10 04:56:00,18.6,16.2,30.37,SSW,213,2.0,2.0,90,0.00,,,0.00,0,Wunderground v.1.15,2013-01-10 10:56:00,
2013-01-10 05:06:00,18.5,16.1,30.37,SSW,213,0.0,2.0,90,0.00,,,0.00,0,Wunderground v.1.15,2013-01-10 11:06:00,
2013-01-10 05:16:00,18.3,15.9,30.37,SSW,213,0.0,0.0,90,0.00,,,0.00,0,Wunderground v.1.15,2013-01-10 11:16:00,
2013-01-10 05:21:00,18.2,15.5,30.37,SSW,213,2.0,2.0,89,0.00,,,0.00,0,Wunderground v.1.15,2013-01-10 11:21:00,
2013-01-10 05:31:00,17.8,15.1,30.36,SSW,213,0.0,0.0,89,0.00,,,0.00,0,Wunderground v.1.15,2013-01-10 11:31:00,
2013-01-10 05:41:00,17.5,14.8,30.36,SSW,213,2.0,2.0,89,0.00,,,0.00,0,Wunderground v.1.15,2013-01-10 11:41:00,
2013-01-10 05:51:00,17.4,14.7,30.36,SSW,213,3.0,3.0,89,0.00,,,0.00,0,Wunderground v.1.15,2013-01-10 11:51:00,
2013-01-10 06:01:00,17.4,14.7,30.36,SSW,213,3.0,3.0,89,0.00,,,0.00,0,Wunderground v.1.15,2013-01-10 12:01:00,
2013-01-10 06:11:00,17.4,15.0,30.36,SSW,211,2.0,2.0,90,0.00,,,0.00,0,Wunderground v.1.15,2013-01-10 12:11:00,
2013-01-10 06:16:00,17.4,15.0,30.35,SSW,203,2.0,2.0,90,0.00,,,0.00,0,Wunderground v.1.15,2013-01-10 12:16:00,
2013-01-10 06:26:00,17.4,15.0,30.34,SSW,203,2.0,3.0,90,0.00,,,0.00,0,Wunderground v.1.15,2013-01-10 12:26:00,
2013-01-10 06:36:00,17.5,15.1,30.35,SSW,202,3.0,3.0,90,0.00,,,0.00,0,Wunderground v.1.15,2013-01-10 12:36:00,
2013-01-10 06:46:00,17.4,15.0,30.34,SSW,202,1.0,3.0,90,0.00,,,0.00,0,Wunderground v.1.15,2013-01-10 12:46:00,
2013-01-10 06:56:00,17.5,15.3,30.35,SSW,202,3.0,3.0,91,0.00,,,0.00,0,Wunderground v.1.15,2013-01-10 12:56:00,
2013-01-10 07:01:00,17.5,15.1,30.35,SSW,201,4.0,4.0,90,0.00,,,0.00,0,Wunderground v.1.15,2013-01-10 13:01:00,
2013-01-10 07:11:00,17.6,15.4,30.35,SSW,199,3.0,3.0,91,0.00,,,0.00,0,Wunderground v.1.15,2013-01-10 13:11:00,
2013-01-10 07:16:00,17.6,15.4,30.34,SSW,199,3.0,3.0,91,0.00,,,0.00,0,Wunderground v.1.15,2013-01-10 13:16:00,
2013-01-10 07:26:00,17.6,15.4,30.35,SSW,199,2.0,2.0,91,0.00,,,0.00,0,Wunderground v.1.15,2013-01-10 13:26:00,
2013-01-10 07:36:00,17.6,15.4,30.35,SSW,199,3.0,3.0,91,0.00,,,0.00,0,Wunderground v.1.15,2013-01-10 13:36:00,
2013-01-10 07:46:00,17.8,15.6,30.35,SSW,198,3.0,4.0,91,0.00,,,0.00,0,Wunderground v.1.15,2013-01-10 13:46:00,
2013-01-10 07:56:00,18.0,15.8,30.35,South,191,4.0,4.0,91,0.00,,,0.00,0,Wunderground v.1.15,2013-01-10 13:56:00,
2013-01-10 08:01:00,18.1,15.9,30.35,South,190,4.0,5.0,91,0.00,,,0.00,0,Wunderground v.1.15,2013-01-10 14:01:00,
2013-01-10 08:11:00,18.6,16.7,30.35,South,181,3.0,3.0,92,0.00,,,0.00,0,Wunderground v.1.15,2013-01-10 14:11:00,
2013-01-10 08:16:00,19.2,17.5,30.35,SSE,148,4.0,4.0,93,0.00,,,0.00,0,Wunderground v.1.15,2013-01-10 14:16:00,
2013-01-10 08:26:00,20.1,18.1,30.35,SE,139,6.0,6.0,92,0.00,,,0.00,0,Wunderground v.1.15,2013-01-10 14:26:00,
2013-01-10 08:36:00,20.9,18.9,30.34,SE,134,5.0,5.0,92,0.00,,,0.00,0,Wunderground v.1.15,2013-01-10 14:36:00,
2013-01-10 08:46:00,21.7,19.5,30.33,SE,134,2.0,3.0,91,0.00,,,0.00,0,Wunderground v.1.15,2013-01-10 14:46:00,
2013-01-10 08:56:00,22.6,20.4,30.34,SE,130,5.0,5.0,91,0.00,,,0.00,0,Wunderground v.1.15,2013-01-10 14:56:00,
2013-01-10 09:01:00,23.0,20.2,30.34,SE,141,7.0,7.0,89,0.00,,,0.00,0,Wunderground v.1.15,2013-01-10 15:01:00,
2013-01-10 09:11:00,23.7,20.7,30.33,SE,142,3.0,3.0,88,0.00,,,0.00,0,Wunderground v.1.15,2013-01-10 15:11:00,
2013-01-10 09:21:00,24.2,20.9,30.32,SE,141,4.0,4.0,87,0.00,,,0.00,0,Wunderground v.1.15,2013-01-10 15:21:00,
2013-01-10 09:31:00,24.7,21.1,30.33,SE,142,4.0,4.0,86,0.00,,,0.00,0,Wunderground v.1.15,2013-01-10 15:31:00,
2013-01-10 09:41:00,25.1,21.2,30.32,SE,142,2.0,2.0,85,0.00,,,0.00,0,Wunderground v.1.15,2013-01-10 15:41:00,
2013-01-10 09:51:00,25.4,21.5,30.32,SE,143,5.0,5.0,85,0.00,,,0.00,0,Wunderground v.1.15,2013-01-10 15:51:00,
2013-01-10 09:56:00,25.4,21.5,30.32,SE,143,4.0,5.0,85,0.00,,,0.00,0,Wunderground v.1.15,2013-01-10 15:56:00,
2013-01-10 10:06:00,25.8,21.9,30.31,SE,139,1.0,6.0,85,0.00,,,0.00,0,Wunderground v.1.15,2013-01-10 16:06:00,
2013-01-10 10:16:00,26.6,22.4,30.31,SE,139,4.0,5.0,84,0.00,,,0.00,0,Wunderground v.1.15,2013-01-10 16:16:00,
2013-01-10 10:26:00,27.4,22.9,30.30,SE,139,0.0,2.0,83,0.00,,,0.00,0,Wunderground v.1.15,2013-01-10 16:26:00,
2013-01-10 10:31:00,27.9,23.1,30.30,SE,139,3.0,3.0,82,0.00,,,0.00,0,Wunderground v.1.15,2013-01-10 16:31:00,
2013-01-10 10:41:00,28.9,23.5,30.30,SE,139,3.0,3.0,80,0.00,,,0.00,0,Wunderground v.1.15,2013-01-10 16:41:00,
2013-01-10 10:51:00,30.0,24.0,30.28,SE,139,2.0,2.0,78,0.00,,,0.00,0,Wunderground v.1.15,2013-01-10 16:51:00,
2013-01-10 11:01:00,30.9,24.2,30.27,SE,138,4.0,6.0,76,0.00,,,0.00,0,Wunderground v.1.15,2013-01-10 17:01:00,
2013-01-10 11:06:00,31.3,24.0,30.26,SE,138,0.0,6.0,74,0.00,,,0.00,0,Wunderground v.1.15,2013-01-10 17:06:00,
2013-01-10 11:16:00,32.4,24.7,30.26,SE,137,3.0,3.0,73,0.00,,,0.00,0,Wunderground v.1.15,2013-01-10 17:16:00,
2013-01-10 11:26:00,33.3,25.2,30.24,SE,135,4.0,4.0,72,0.00,,,0.00,0,Wunderground v.1.15,2013-01-10 17:26:00,
2013-01-10 11:31:00,33.5,25.1,30.24,ESE,118,2.0,2.0,71,0.00,,,0.00,0,Wunderground v.1.15,2013-01-10 17:31:00,
2013-01-10 11:41:00,34.1,25.7,30.23,SE,134,5.0,5.0,71,0.00,,,0.00,0,Wunderground v.1.15,2013-01-10 17:41:00,
2013-01-10 11:51:00,34.6,26.2,30.22,SE,140,5.0,5.0,71,0.00,,,0.00,0,Wunderground v.1.15,2013-01-10 17:51:00,
2013-01-10 12:01:00,35.3,26.5,30.21,SE,133,4.0,5.0,70,0.00,,,0.00,0,Wunderground v.1.15,2013-01-10 18:01:00,
2013-01-10 12:06:00,35.7,26.5,30.20,SE,133,4.0,5.0,69,0.00,,,0.00,0,Wunderground v.1.15,2013-01-10 18:06:00,
2013-01-10 12:16:00,36.5,26.6,30.20,SE,135,3.0,3.0,67,0.00,,,0.00,0,Wunderground v.1.15,2013-01-10 18:16:00,
2013-01-10 12:26:00,37.1,26.4,30.19,ESE,117,1.0,1.0,65,0.00,,,0.00,0,Wunderground v.1.15,2013-01-10 18:26:00,
2013-01-10 12:36:00,37.5,26.8,30.19,SE,133,3.0,5.0,65,0.00,,,0.00,0,Wunderground v.1.15,2013-01-10 18:36:00,
2013-01-10 12:46:00,37.7,27.0,30.18,SE,138,2.0,5.0,65,0.00,,,0.00,0,Wunderground v.1.15,2013-01-10 18:46:00,
2013-01-10 12:56:00,37.9,26.4,30.17,ESE,122,6.0,6.0,63,0.00,,,0.00,0,Wunderground v.1.15,2013-01-10 18:56:00,
2013-01-10 13:06:00,38.1,26.6,30.16,SE,128,5.0,7.0,63,0.00,,,0.00,0,Wunderground v.1.15,2013-01-10 19:06:00,
2013-01-10 13:16:00,38.1,25.8,30.15,SE,136,11.0,11.0,61,0.00,,,0.00,0,Wunderground v.1.15,2013-01-10 19:16:00,
2013-01-10 13:21:00,38.2,25.5,30.14,SE,136,3.0,3.0,60,0.00,,,0.00,0,Wunderground v.1.15,2013-01-10 19:21:00,
2013-01-10 13:31:00,38.5,25.4,30.14,SE,137,6.0,6.0,59,0.00,,,0.00,0,Wunderground v.1.15,2013-01-10 19:31:00,
2013-01-10 13:41:00,38.5,25.8,30.13,SE,138,6.0,6.0,60,0.00,,,0.00,0,Wunderground v.1.15,2013-01-10 19:41:00,
2013-01-10 13:51:00,38.4,26.1,30.13,SE,141,11.0,11.0,61,0.00,,,0.00,0,Wunderground v.1.15,2013-01-10 19:51:00,
2013-01-10 14:01:00,38.5,25.8,30.13,SE,137,7.0,7.0,60,0.00,,,0.00,0,Wunderground v.1.15,2013-01-10 20:01:00,
2013-01-10 14:11:00,38.6,25.9,30.13,SE,130,9.0,9.0,60,0.00,,,0.00,0,Wunderground v.1.15,2013-01-10 20:11:00,
2013-01-10 14:21:00,38.6,25.9,30.13,SE,146,2.0,2.0,60,0.00,,,0.00,0,Wunderground v.1.15,2013-01-10 20:21:00,
2013-01-10 14:31:00,38.3,26.4,30.12,SE,140,9.0,9.0,62,0.00,,,0.00,0,Wunderground v.1.15,2013-01-10 20:31:00,
2013-01-10 14:41:00,38.0,26.1,30.12,ESE,114,6.0,6.0,62,0.00,,,0.00,0,Wunderground v.1.15,2013-01-10 20:41:00,
2013-01-10 14:51:00,38.0,26.1,30.12,SE,143,5.0,5.0,62,0.00,,,0.00,0,Wunderground v.1.15,2013-01-10 20:51:00,
2013-01-10 15:01:00,37.8,26.3,30.12,SE,145,5.0,16.0,63,0.00,,,0.00,0,Wunderground v.1.15,2013-01-10 21:01:00,
2013-01-10 15:11:00,37.6,26.1,30.11,SE,132,5.0,5.0,63,0.00,,,0.00,0,Wunderground v.1.15,2013-01-10 21:11:00,
2013-01-10 15:21:00,37.3,26.6,30.11,SE,127,3.0,3.0,65,0.00,,,0.00,0,Wunderground v.1.15,2013-01-10 21:21:00,
2013-01-10 15:31:00,37.1,26.4,30.11,SE,141,5.0,5.0,65,0.00,,,0.00,0,Wunderground v.1.15,2013-01-10 21:31:00,
2013-01-10 15:41:00,37.0,25.9,30.11,SE,132,5.0,5.0,64,0.00,,,0.00,0,Wunderground v.1.15,2013-01-10 21:41:00,
2013-01-10 15:51:00,36.9,26.2,30.10,SE,133,1.0,1.0,65,0.00,,,0.00,0,Wunderground v.1.15,2013-01-10 21:51:00,
2013-01-10 16:01:00,36.8,26.1,30.09,SSE,151,3.0,11.0,65,0.00,,,0.00,0,Wunderground v.1.15,2013-01-10 22:01:00,
2013-01-10 16:11:00,36.7,26.4,30.09,SE,129,5.0,5.0,66,0.00,,,0.00,0,Wunderground v.1.15,2013-01-10 22:11:00,
2013-01-10 16:16:00,36.6,26.7,30.09,SE,131,4.0,5.0,67,0.00,,,0.00,0,Wunderground v.1.15,2013-01-10 22:16:00,
2013-01-10 16:26:00,36.5,26.6,30.08,SE,124,3.0,8.0,67,0.00,,,0.00,0,Wunderground v.1.15,2013-01-10 22:26:00,
2013-01-10 16:36:00,36.4,27.2,30.06,ESE,105,4.0,7.0,69,0.00,,,0.00,0,Wunderground v.1.15,2013-01-10 22:36:00,
2013-01-10 16:46:00,36.2,27.7,30.06,ESE,107,10.0,10.0,71,0.00,,,0.00,0,Wunderground v.1.15,2013-01-10 22:46:00,
2013-01-10 17:01:00,35.9,27.7,30.05,SE,139,6.0,13.0,72,0.00,,,0.00,0,Wunderground v.1.15,2013-01-10 23:01:00,
2013-01-10 17:11:00,35.7,28.2,30.04,SE,133,3.0,3.0,74,0.00,,,0.00,0,Wunderground v.1.15,2013-01-10 23:11:00,
2013-01-10 17:16:00,35.6,28.5,30.04,ESE,113,2.0,3.0,75,0.00,,,0.00,0,Wunderground v.1.15,2013-01-10 23:16:00,
2013-01-10 17:26:00,35.4,29.2,30.03,ESE,119,3.0,3.0,78,0.00,,,0.00,0,Wunderground v.1.15,2013-01-10 23:26:00,
2013-01-10 17:36:00,35.2,30.0,30.02,ESE,115,6.0,7.0,81,0.00,,,0.00,0,Wunderground v.1.15,2013-01-10 23:36:00,
2013-01-10 17:46:00,35.1,30.5,30.01,ESE,109,5.0,7.0,83,0.00,,,0.00,0,Wunderground v.1.15,2013-01-10 23:46:00,
2013-01-10 17:56:00,35.0,30.7,30.00,ESE,109,4.0,6.0,84,0.00,,,0.00,0,Wunderground v.1.15,2013-01-10 23:56:00,
2013-01-10 18:01:00,35.0,30.7,30.00,ESE,107,2.0,14.0,84,0.00,,,0.00,0,Wunderground v.1.15,2013-01-11 00:01:00,
2013-01-10 18:11:00,34.9,30.8,29.99,ESE,114,4.0,4.0,85,0.00,,,0.00,0,Wunderground v.1.15,2013-01-11 00:11:00,
2013-01-10 18:16:00,34.9,30.8,29.99,ESE,114,7.0,7.0,85,0.00,,,0.00,0,Wunderground v.1.15,2013-01-11 00:16:00,
2013-01-10 18:26:00,34.8,31.0,29.97,ESE,102,7.0,9.0,86,0.00,,,0.00,0,Wunderground v.1.15,2013-01-11 00:26:00,
2013-01-10 18:36:00,34.6,31.1,29.97,ESE,122,5.0,9.0,87,0.00,,,0.00,0,Wunderground v.1.15,2013-01-11 00:36:00,
2013-01-10 18:46:00,34.3,31.4,29.96,SE,125,12.0,12.0,89,0.00,,,0.00,0,Wunderground v.1.15,2013-01-11 00:46:00,
2013-01-10 18:56:00,34.1,31.5,29.96,SE,131,4.0,7.0,90,0.00,,,0.00,0,Wunderground v.1.15,2013-01-11 00:56:00,
2013-01-10 19:01:00,34.0,31.6,29.95,East,90,10.0,13.0,91,0.00,,,0.00,0,Wunderground v.1.15,2013-01-11 01:01:00,
2013-01-10 19:10:00,34.0,31.9,29.94,SSE,155,4.0,4.0,92,0.00,,,0.00,0,Wunderground v.1.15,2013-01-11 01:10:00,
2013-01-10 19:16:00,33.9,31.8,29.94,SE,125,4.0,4.0,92,0.00,,,0.00,0,Wunderground v.1.15,2013-01-11 01:16:00,
2013-01-10 19:26:00,33.9,31.8,29.93,ESE,109,8.0,8.0,92,0.00,,,0.00,0,Wunderground v.1.15,2013-01-11 01:26:00,
2013-01-10 19:36:00,33.8,32.0,29.93,SSE,148,2.0,5.0,93,0.00,,,0.00,0,Wunderground v.1.15,2013-01-11 01:36:00,
2013-01-10 19:46:00,33.7,31.9,29.93,SE,140,9.0,9.0,93,0.00,,,0.00,0,Wunderground v.1.15,2013-01-11 01:46:00,
2013-01-10 19:56:00,33.8,32.0,29.92,SE,125,7.0,12.0,93,0.00,,,0.00,0,Wunderground v.1.15,2013-01-11 01:56:00,
2013-01-10 20:01:00,33.7,31.9,29.92,ESE,121,9.0,17.0,93,0.00,,,0.00,0,Wunderground v.1.15,2013-01-11 02:01:00,
2013-01-10 20:11:00,33.7,32.2,29.92,SE,136,9.0,9.0,94,0.00,,,0.00,0,Wunderground v.1.15,2013-01-11 02:11:00,
2013-01-10 20:21:00,33.7,32.2,29.91,SE,124,6.0,6.0,94,0.00,,,0.00,0,Wunderground v.1.15,2013-01-11 02:21:00,
2013-01-10 20:31:00,33.7,32.2,29.90,SE,142,8.0,8.0,94,0.00,,,0.00,0,Wunderground v.1.15,2013-01-11 02:31:00,
2013-01-10 20:36:00,33.7,32.2,29.90,SSE,150,9.0,9.0,94,0.00,,,0.00,0,Wunderground v.1.15,2013-01-11 02:36:00,
2013-01-10 20:46:00,33.7,32.4,29.89,SE,141,9.0,9.0,95,0.00,,,0.00,0,Wunderground v.1.15,2013-01-11 02:46:00,
2013-01-10 20:56:00,33.7,32.4,29.88,SE,143,8.0,8.0,95,0.00,,,0.00,0,Wunderground v.1.15,2013-01-11 02:56:00,
2013-01-10 21:06:00,33.7,32.4,29.88,SSE,147,7.0,17.0,95,0.00,,,0.00,0,Wunderground v.1.15,2013-01-11 03:06:00,
2013-01-10 21:11:00,33.7,32.4,29.87,SSE,147,12.0,12.0,95,0.00,,,0.00,0,Wunderground v.1.15,2013-01-11 03:11:00,
2013-01-10 21:21:00,33.7,32.4,29.87,SSE,151,7.0,7.0,95,0.00,,,0.00,0,Wunderground v.1.15,2013-01-11 03:21:00,
2013-01-10 21:31:00,33.8,32.5,29.87,SSE,153,9.0,9.0,95,0.00,,,0.00,0,Wunderground v.1.15,2013-01-11 03:31:00,
2013-01-10 21:36:00,33.8,32.5,29.86,SE,136,15.0,15.0,95,0.00,,,0.00,0,Wunderground v.1.15,2013-01-11 03:36:00,
2013-01-10 21:46:00,33.8,32.5,29.85,SE,134,5.0,7.0,95,0.00,,,0.00,0,Wunderground v.1.15,2013-01-11 03:46:00,
2013-01-10 21:56:00,33.8,32.8,29.84,SE,133,10.0,10.0,96,0.00,,,0.00,0,Wunderground v.1.15,2013-01-11 03:56:00,
2013-01-10 22:05:00,33.9,32.9,29.84,SE,145,9.0,16.0,96,0.00,,,0.00,0,Wunderground v.1.15,2013-01-11 04:05:00,
2013-01-10 22:11:00,33.9,32.9,29.83,SSE,152,9.0,9.0,96,0.00,,,0.00,0,Wunderground v.1.15,2013-01-11 04:11:00,
2013-01-10 22:21:00,33.8,32.5,29.83,SE,130,5.0,5.0,95,0.00,,,0.00,0,Wunderground v.1.15,2013-01-11 04:21:00,
2013-01-10 22:31:00,33.9,32.9,29.83,SE,141,5.0,5.0,96,0.00,,,0.00,0,Wunderground v.1.15,2013-01-11 04:31:00,
2013-01-10 22:36:00,34.0,33.0,29.82,SE,141,8.0,8.0,96,0.00,,,0.00,0,Wunderground v.1.15,2013-01-11 04:36:00,
2013-01-10 22:46:00,33.9,32.9,29.82,SSE,153,6.0,6.0,96,0.00,,,0.00,0,Wunderground v.1.15,2013-01-11 04:46:00,
2013-01-10 22:56:00,33.8,32.8,29.83,SE,144,9.0,9.0,96,0.00,,,0.00,0,Wunderground v.1.15,2013-01-11 04:56:00,
2013-01-10 23:01:00,33.8,32.8,29.83,SSE,154,8.0,11.0,96,0.00,,,0.00,0,Wunderground v.1.15,2013-01-11 05:01:00,
2013-01-10 23:06:00,33.9,32.9,29.82,SE,146,8.0,11.0,96,0.00,,,0.00,0,Wunderground v.1.15,2013-01-11 05:06:00,
2013-01-10 23:11:00,33.9,32.9,29.82,ESE,119,6.0,6.0,96,0.00,,,0.00,0,Wunderground v.1.15,2013-01-11 05:11:00,
2013-01-10 23:16:00,33.9,32.9,29.81,SE,128,5.0,6.0,96,0.00,,,0.00,0,Wunderground v.1.15,2013-01-11 05:16:00,
2013-01-10 23:26:00,34.0,33.0,29.80,ESE,123,3.0,3.0,96,0.00,,,0.00,0,Wunderground v.1.15,2013-01-11 05:26:00,
2013-01-10 23:36:00,34.0,33.0,29.79,SSE,148,3.0,5.0,96,0.00,,,0.00,0,Wunderground v.1.15,2013-01-11 05:36:00,
2013-01-10 23:46:00,34.1,33.1,29.77,ESE,121,6.0,7.0,96,0.00,,,0.00,0,Wunderground v.1.15,2013-01-11 05:46:00,
2013-01-10 23:56:00,34.1,33.1,29.76,SE,132,6.0,9.0,96,0.00,,,0.00,0,Wunderground v.1.15,2013-01-11 05:56:00,